KCRO2: Canadian River nr Konowa, OK

Data processed at Sat Feb 17 2018 23:52


All information presented herein is the property of the government of the United States of America and may be revised or deleted at any time without prior notice.
Dissemination of this information without the expressed written consent of the Public Affairs Office, Tulsa District U.S. Army Corps of Engineers is strictly prohibited.
These data are gathered electronically and, as presented, have not undergone any form of quality control. These data are not guaranteed to be valid or correct.
Go to home page.
Go to station list.


Previous Day
Next Day
Current Day


    
SHEF ID:       KCRO2     Canadian River nr Konowa, OK
STATION TYPE:  

                STAGE  RIV-FLOW   VOLTAGE  BAT-LOAD
                   ft       cfs      volt      volt
              Ccp-Rev   Ccp-Rev   Ccp-Rev   Ccp-Rev
(US/Central)
02/17 00:00      9.04       356     12.73     12.57
02/17 01:00      9.04       356     12.73     12.57
02/17 02:00      9.06       370     12.73     12.57
02/17 03:00      9.06       370     12.73     12.57
02/17 04:00      9.01       335     12.73     12.49
02/17 05:00      9.03       349     12.73     12.49
02/17 06:00      9.09       393     12.73     12.49
02/17 07:00      9.11       409     12.73     12.49
02/17 08:00      9.11       409     12.73     12.49
02/17 09:00      9.11       409     13.13     12.81
02/17 10:00      9.11       409     13.29     13.05
02/17 11:00      9.09       393     13.44     13.37
02/17 12:00      9.09       393     13.68     13.29
02/17 13:00      9.09       393     13.84     13.29
02/17 14:00      9.10       401     13.44     13.21
02/17 15:00      9.10       401     14.16     13.21
02/17 16:00      9.10       401     13.37     13.05
02/17 17:00      9.10       401     13.13     12.97
02/17 18:00      9.11       409     13.05     12.89
02/17 19:00      9.12       417     12.97     12.81
02/17 20:00      9.12       417     12.97     12.81
02/17 21:00      9.13       426     12.97     12.73
02/17 22:00      9.13       426     12.97     12.73
02/17 23:00      ----      ----      ----      ----